sensor_id;sensor_type;location;lat;lon;timestamp;P1;durP1;ratioP1;P2;durP2;ratioP2
29816;SDS011;16805;52.956;5.906;2023-09-30T00:01:57;5.47;;;0.63;;
29816;SDS011;16805;52.956;5.906;2023-09-30T00:04:23;5.10;;;1.02;;
29816;SDS011;16805;52.956;5.906;2023-09-30T00:06:49;3.33;;;0.80;;
29816;SDS011;16805;52.956;5.906;2023-09-30T00:09:15;4.80;;;1.13;;
29816;SDS011;16805;52.956;5.906;2023-09-30T00:11:40;3.40;;;0.90;;
29816;SDS011;16805;52.956;5.906;2023-09-30T00:14:06;4.70;;;1.10;;
29816;SDS011;16805;52.956;5.906;2023-09-30T00:16:32;4.65;;;0.93;;
29816;SDS011;16805;52.956;5.906;2023-09-30T00:18:58;2.80;;;1.27;;
29816;SDS011;16805;52.956;5.906;2023-09-30T00:21:24;2.50;;;0.77;;
29816;SDS011;16805;52.956;5.906;2023-09-30T00:23:50;3.42;;;1.00;;
29816;SDS011;16805;52.956;5.906;2023-09-30T00:26:15;4.88;;;0.80;;
29816;SDS011;16805;52.956;5.906;2023-09-30T00:28:41;4.90;;;1.10;;
29816;SDS011;16805;52.956;5.906;2023-09-30T00:31:07;8.32;;;1.75;;
29816;SDS011;16805;52.956;5.906;2023-09-30T00:33:35;5.35;;;1.30;;
29816;SDS011;16805;52.956;5.906;2023-09-30T00:36:08;4.50;;;0.98;;
29816;SDS011;16805;52.956;5.906;2023-09-30T00:38:35;2.55;;;0.88;;
29816;SDS011;16805;52.956;5.906;2023-09-30T00:41:05;6.82;;;0.90;;
29816;SDS011;16805;52.956;5.906;2023-09-30T00:43:32;4.90;;;1.05;;
29816;SDS011;16805;52.956;5.906;2023-09-30T00:48:35;4.22;;;1.00;;
29816;SDS011;16805;52.956;5.906;2023-09-30T00:51:03;4.00;;;0.82;;
29816;SDS011;16805;52.956;5.906;2023-09-30T00:53:29;6.55;;;1.45;;
29816;SDS011;16805;52.956;5.906;2023-09-30T00:55:55;5.55;;;1.00;;
29816;SDS011;16805;52.956;5.906;2023-09-30T00:58:22;5.93;;;0.88;;
29816;SDS011;16805;52.956;5.906;2023-09-30T01:00:52;1.95;;;1.05;;
29816;SDS011;16805;52.956;5.906;2023-09-30T01:03:18;9.68;;;1.75;;
29816;SDS011;16805;52.956;5.906;2023-09-30T01:05:45;6.53;;;1.40;;
29816;SDS011;16805;52.956;5.906;2023-09-30T01:08:10;4.30;;;1.20;;
29816;SDS011;16805;52.956;5.906;2023-09-30T01:10:36;4.30;;;1.02;;
29816;SDS011;16805;52.956;5.906;2023-09-30T01:13:02;2.42;;;0.65;;
29816;SDS011;16805;52.956;5.906;2023-09-30T01:15:31;6.18;;;1.20;;
29816;SDS011;16805;52.956;5.906;2023-09-30T01:17:56;4.13;;;0.90;;
29816;SDS011;16805;52.956;5.906;2023-09-30T01:20:23;6.60;;;1.50;;
29816;SDS011;16805;52.956;5.906;2023-09-30T01:22:49;3.70;;;1.10;;
29816;SDS011;16805;52.956;5.906;2023-09-30T01:25:14;4.13;;;0.90;;
29816;SDS011;16805;52.956;5.906;2023-09-30T01:27:40;3.40;;;1.13;;
29816;SDS011;16805;52.956;5.906;2023-09-30T01:30:06;4.15;;;1.00;;
29816;SDS011;16805;52.956;5.906;2023-09-30T01:32:36;2.65;;;0.80;;
29816;SDS011;16805;52.956;5.906;2023-09-30T01:35:02;7.97;;;1.00;;
29816;SDS011;16805;52.956;5.906;2023-09-30T01:37:28;8.52;;;1.25;;
29816;SDS011;16805;52.956;5.906;2023-09-30T01:39:54;4.97;;;1.08;;
29816;SDS011;16805;52.956;5.906;2023-09-30T01:42:20;2.40;;;1.08;;
29816;SDS011;16805;52.956;5.906;2023-09-30T01:44:46;2.95;;;0.85;;
29816;SDS011;16805;52.956;5.906;2023-09-30T01:47:12;3.47;;;1.13;;
29816;SDS011;16805;52.956;5.906;2023-09-30T01:49:37;5.57;;;1.00;;
29816;SDS011;16805;52.956;5.906;2023-09-30T01:52:03;5.25;;;1.00;;
29816;SDS011;16805;52.956;5.906;2023-09-30T01:54:29;0.85;;;0.50;;
29816;SDS011;16805;52.956;5.906;2023-09-30T01:56:55;2.40;;;0.90;;
29816;SDS011;16805;52.956;5.906;2023-09-30T01:59:21;2.53;;;0.73;;
29816;SDS011;16805;52.956;5.906;2023-09-30T02:01:47;3.00;;;0.88;;
29816;SDS011;16805;52.956;5.906;2023-09-30T02:04:14;3.20;;;1.10;;
29816;SDS011;16805;52.956;5.906;2023-09-30T02:06:42;4.78;;;0.73;;
29816;SDS011;16805;52.956;5.906;2023-09-30T02:09:09;3.88;;;1.02;;
29816;SDS011;16805;52.956;5.906;2023-09-30T02:11:37;4.07;;;1.10;;
29816;SDS011;16805;52.956;5.906;2023-09-30T02:14:06;2.50;;;0.70;;
29816;SDS011;16805;52.956;5.906;2023-09-30T02:16:31;3.05;;;1.00;;
29816;SDS011;16805;52.956;5.906;2023-09-30T02:18:57;4.85;;;1.05;;
29816;SDS011;16805;52.956;5.906;2023-09-30T02:21:23;2.03;;;0.70;;
29816;SDS011;16805;52.956;5.906;2023-09-30T02:23:49;3.95;;;1.25;;
29816;SDS011;16805;52.956;5.906;2023-09-30T02:26:18;1.55;;;0.82;;
29816;SDS011;16805;52.956;5.906;2023-09-30T02:28:44;6.28;;;1.33;;
29816;SDS011;16805;52.956;5.906;2023-09-30T02:31:10;2.03;;;0.80;;
29816;SDS011;16805;52.956;5.906;2023-09-30T02:33:35;4.00;;;0.88;;
29816;SDS011;16805;52.956;5.906;2023-09-30T02:36:02;5.88;;;1.55;;
29816;SDS011;16805;52.956;5.906;2023-09-30T02:38:30;3.00;;;1.17;;
29816;SDS011;16805;52.956;5.906;2023-09-30T02:40:56;4.75;;;1.25;;
29816;SDS011;16805;52.956;5.906;2023-09-30T02:43:22;3.60;;;1.48;;
29816;SDS011;16805;52.956;5.906;2023-09-30T02:45:48;8.07;;;1.30;;
29816;SDS011;16805;52.956;5.906;2023-09-30T02:48:13;5.60;;;1.77;;
29816;SDS011;16805;52.956;5.906;2023-09-30T02:50:41;3.50;;;1.30;;
29816;SDS011;16805;52.956;5.906;2023-09-30T02:53:09;6.25;;;1.48;;
29816;SDS011;16805;52.956;5.906;2023-09-30T02:55:36;10.73;;;1.55;;
29816;SDS011;16805;52.956;5.906;2023-09-30T02:58:02;2.17;;;1.10;;
29816;SDS011;16805;52.956;5.906;2023-09-30T03:00:27;4.32;;;1.25;;
29816;SDS011;16805;52.956;5.906;2023-09-30T03:02:57;4.65;;;1.77;;
29816;SDS011;16805;52.956;5.906;2023-09-30T03:05:24;5.18;;;1.67;;
29816;SDS011;16805;52.956;5.906;2023-09-30T03:07:52;3.78;;;1.48;;
29816;SDS011;16805;52.956;5.906;2023-09-30T03:10:18;3.28;;;1.50;;
29816;SDS011;16805;52.956;5.906;2023-09-30T03:12:51;4.75;;;2.28;;
29816;SDS011;16805;52.956;5.906;2023-09-30T03:15:18;3.53;;;1.55;;
29816;SDS011;16805;52.956;5.906;2023-09-30T03:17:43;10.48;;;2.25;;
29816;SDS011;16805;52.956;5.906;2023-09-30T03:20:10;4.97;;;2.08;;
29816;SDS011;16805;52.956;5.906;2023-09-30T03:22:40;4.25;;;2.00;;
29816;SDS011;16805;52.956;5.906;2023-09-30T03:25:12;4.38;;;2.17;;
29816;SDS011;16805;52.956;5.906;2023-09-30T03:27:40;8.15;;;2.08;;
29816;SDS011;16805;52.956;5.906;2023-09-30T03:30:06;6.90;;;2.15;;
29816;SDS011;16805;52.956;5.906;2023-09-30T03:32:33;5.07;;;2.45;;
29816;SDS011;16805;52.956;5.906;2023-09-30T03:35:03;6.47;;;1.98;;
29816;SDS011;16805;52.956;5.906;2023-09-30T03:37:31;8.55;;;2.55;;
29816;SDS011;16805;52.956;5.906;2023-09-30T03:39:57;8.68;;;2.42;;
29816;SDS011;16805;52.956;5.906;2023-09-30T03:42:23;9.93;;;2.40;;
29816;SDS011;16805;52.956;5.906;2023-09-30T03:44:49;8.73;;;2.58;;
29816;SDS011;16805;52.956;5.906;2023-09-30T03:47:15;8.82;;;2.50;;
29816;SDS011;16805;52.956;5.906;2023-09-30T03:49:41;6.30;;;2.28;;
29816;SDS011;16805;52.956;5.906;2023-09-30T03:52:08;4.35;;;2.05;;
29816;SDS011;16805;52.956;5.906;2023-09-30T03:54:35;5.85;;;2.28;;
29816;SDS011;16805;52.956;5.906;2023-09-30T03:57:00;6.80;;;2.25;;
29816;SDS011;16805;52.956;5.906;2023-09-30T03:59:28;7.63;;;2.03;;
29816;SDS011;16805;52.956;5.906;2023-09-30T04:01:54;5.18;;;2.05;;
29816;SDS011;16805;52.956;5.906;2023-09-30T04:04:19;4.43;;;1.98;;
29816;SDS011;16805;52.956;5.906;2023-09-30T04:06:48;5.30;;;2.05;;
29816;SDS011;16805;52.956;5.906;2023-09-30T04:09:16;7.22;;;2.65;;
29816;SDS011;16805;52.956;5.906;2023-09-30T04:11:42;5.28;;;2.08;;
29816;SDS011;16805;52.956;5.906;2023-09-30T04:14:08;8.65;;;2.20;;
29816;SDS011;16805;52.956;5.906;2023-09-30T04:16:34;5.80;;;2.40;;
29816;SDS011;16805;52.956;5.906;2023-09-30T04:19:02;8.73;;;2.60;;
29816;SDS011;16805;52.956;5.906;2023-09-30T04:21:28;7.78;;;3.22;;
29816;SDS011;16805;52.956;5.906;2023-09-30T04:23:58;7.50;;;3.50;;
29816;SDS011;16805;52.956;5.906;2023-09-30T04:26:24;6.88;;;3.03;;
29816;SDS011;16805;52.956;5.906;2023-09-30T04:28:50;6.47;;;1.95;;
29816;SDS011;16805;52.956;5.906;2023-09-30T04:31:16;8.55;;;2.42;;
29816;SDS011;16805;52.956;5.906;2023-09-30T04:33:43;5.43;;;2.40;;
29816;SDS011;16805;52.956;5.906;2023-09-30T04:36:09;3.00;;;2.10;;
29816;SDS011;16805;52.956;5.906;2023-09-30T04:38:35;6.10;;;2.58;;
29816;SDS011;16805;52.956;5.906;2023-09-30T04:41:02;9.18;;;2.47;;
29816;SDS011;16805;52.956;5.906;2023-09-30T04:43:28;7.47;;;2.50;;
29816;SDS011;16805;52.956;5.906;2023-09-30T04:45:54;5.60;;;2.35;;
29816;SDS011;16805;52.956;5.906;2023-09-30T04:48:22;7.00;;;2.30;;
29816;SDS011;16805;52.956;5.906;2023-09-30T04:50:48;9.55;;;1.85;;
29816;SDS011;16805;52.956;5.906;2023-09-30T04:53:14;4.03;;;2.08;;
29816;SDS011;16805;52.956;5.906;2023-09-30T04:55:43;6.22;;;2.63;;
29816;SDS011;16805;52.956;5.906;2023-09-30T04:58:10;6.18;;;2.05;;
29816;SDS011;16805;52.956;5.906;2023-09-30T05:00:36;5.68;;;2.78;;
29816;SDS011;16805;52.956;5.906;2023-09-30T05:03:02;7.47;;;3.03;;
29816;SDS011;16805;52.956;5.906;2023-09-30T05:05:29;6.13;;;2.40;;
29816;SDS011;16805;52.956;5.906;2023-09-30T05:07:54;5.88;;;2.88;;
29816;SDS011;16805;52.956;5.906;2023-09-30T05:10:20;7.05;;;2.38;;
29816;SDS011;16805;52.956;5.906;2023-09-30T05:12:46;4.20;;;2.20;;
29816;SDS011;16805;52.956;5.906;2023-09-30T05:15:12;4.88;;;2.63;;
29816;SDS011;16805;52.956;5.906;2023-09-30T05:17:40;8.32;;;2.80;;
29816;SDS011;16805;52.956;5.906;2023-09-30T05:20:08;8.70;;;2.75;;
29816;SDS011;16805;52.956;5.906;2023-09-30T05:22:35;6.25;;;2.75;;
29816;SDS011;16805;52.956;5.906;2023-09-30T05:25:01;5.85;;;2.35;;
29816;SDS011;16805;52.956;5.906;2023-09-30T05:27:27;7.85;;;2.90;;
29816;SDS011;16805;52.956;5.906;2023-09-30T05:29:53;6.82;;;2.75;;
29816;SDS011;16805;52.956;5.906;2023-09-30T05:32:20;5.70;;;2.42;;
29816;SDS011;16805;52.956;5.906;2023-09-30T05:34:46;5.00;;;2.60;;
29816;SDS011;16805;52.956;5.906;2023-09-30T05:37:13;7.85;;;2.80;;
29816;SDS011;16805;52.956;5.906;2023-09-30T05:39:39;4.32;;;2.53;;
29816;SDS011;16805;52.956;5.906;2023-09-30T05:42:05;10.35;;;2.90;;
29816;SDS011;16805;52.956;5.906;2023-09-30T05:44:31;6.07;;;3.15;;
29816;SDS011;16805;52.956;5.906;2023-09-30T05:46:57;5.10;;;3.17;;
29816;SDS011;16805;52.956;5.906;2023-09-30T05:49:25;5.55;;;2.92;;
29816;SDS011;16805;52.956;5.906;2023-09-30T05:51:51;7.05;;;3.08;;
29816;SDS011;16805;52.956;5.906;2023-09-30T05:54:16;4.28;;;2.35;;
29816;SDS011;16805;52.956;5.906;2023-09-30T05:56:42;7.10;;;2.85;;
29816;SDS011;16805;52.956;5.906;2023-09-30T05:59:08;4.32;;;2.70;;
29816;SDS011;16805;52.956;5.906;2023-09-30T06:01:34;4.53;;;3.05;;
29816;SDS011;16805;52.956;5.906;2023-09-30T06:04:01;6.22;;;3.55;;
29816;SDS011;16805;52.956;5.906;2023-09-30T06:06:27;8.82;;;4.00;;
29816;SDS011;16805;52.956;5.906;2023-09-30T06:08:56;5.97;;;3.42;;
29816;SDS011;16805;52.956;5.906;2023-09-30T06:11:25;5.50;;;3.33;;
29816;SDS011;16805;52.956;5.906;2023-09-30T06:13:57;4.32;;;3.42;;
29816;SDS011;16805;52.956;5.906;2023-09-30T06:16:29;7.07;;;3.25;;
29816;SDS011;16805;52.956;5.906;2023-09-30T06:18:56;8.32;;;3.83;;
29816;SDS011;16805;52.956;5.906;2023-09-30T06:21:23;7.05;;;3.65;;
29816;SDS011;16805;52.956;5.906;2023-09-30T06:23:50;6.05;;;3.20;;
29816;SDS011;16805;52.956;5.906;2023-09-30T06:26:19;7.03;;;3.83;;
29816;SDS011;16805;52.956;5.906;2023-09-30T06:28:46;5.25;;;3.40;;
29816;SDS011;16805;52.956;5.906;2023-09-30T06:31:13;7.68;;;4.00;;
29816;SDS011;16805;52.956;5.906;2023-09-30T06:33:40;8.40;;;4.25;;
29816;SDS011;16805;52.956;5.906;2023-09-30T06:36:10;7.18;;;3.58;;
29816;SDS011;16805;52.956;5.906;2023-09-30T06:38:36;5.72;;;3.97;;
29816;SDS011;16805;52.956;5.906;2023-09-30T06:41:06;5.32;;;3.65;;
29816;SDS011;16805;52.956;5.906;2023-09-30T06:43:33;8.73;;;3.28;;
29816;SDS011;16805;52.956;5.906;2023-09-30T06:46:05;7.30;;;2.92;;
29816;SDS011;16805;52.956;5.906;2023-09-30T06:48:38;9.85;;;3.95;;
29816;SDS011;16805;52.956;5.906;2023-09-30T06:51:05;6.05;;;3.13;;
29816;SDS011;16805;52.956;5.906;2023-09-30T06:53:31;9.15;;;3.63;;
29816;SDS011;16805;52.956;5.906;2023-09-30T06:55:57;7.93;;;4.35;;
29816;SDS011;16805;52.956;5.906;2023-09-30T06:58:22;10.60;;;4.63;;
29816;SDS011;16805;52.956;5.906;2023-09-30T07:00:49;10.13;;;4.47;;
29816;SDS011;16805;52.956;5.906;2023-09-30T07:03:16;6.38;;;3.95;;
29816;SDS011;16805;52.956;5.906;2023-09-30T07:05:42;8.82;;;4.60;;
29816;SDS011;16805;52.956;5.906;2023-09-30T07:08:08;7.25;;;4.13;;
29816;SDS011;16805;52.956;5.906;2023-09-30T07:10:37;5.03;;;3.17;;
29816;SDS011;16805;52.956;5.906;2023-09-30T07:13:03;7.97;;;4.25;;
29816;SDS011;16805;52.956;5.906;2023-09-30T07:15:29;10.38;;;3.90;;
29816;SDS011;16805;52.956;5.906;2023-09-30T07:17:55;6.95;;;4.10;;
29816;SDS011;16805;52.956;5.906;2023-09-30T07:20:21;9.02;;;3.95;;
29816;SDS011;16805;52.956;5.906;2023-09-30T07:22:47;8.25;;;3.90;;
29816;SDS011;16805;52.956;5.906;2023-09-30T07:25:13;7.70;;;3.88;;
29816;SDS011;16805;52.956;5.906;2023-09-30T07:27:41;9.13;;;4.30;;
29816;SDS011;16805;52.956;5.906;2023-09-30T07:30:10;11.30;;;4.35;;
29816;SDS011;16805;52.956;5.906;2023-09-30T07:32:37;13.13;;;5.03;;
29816;SDS011;16805;52.956;5.906;2023-09-30T07:35:03;6.95;;;4.03;;
29816;SDS011;16805;52.956;5.906;2023-09-30T07:37:29;8.20;;;4.03;;
29816;SDS011;16805;52.956;5.906;2023-09-30T07:39:55;6.30;;;4.20;;
29816;SDS011;16805;52.956;5.906;2023-09-30T07:42:21;6.28;;;3.72;;
29816;SDS011;16805;52.956;5.906;2023-09-30T07:44:47;11.18;;;4.28;;
29816;SDS011;16805;52.956;5.906;2023-09-30T07:47:14;12.30;;;4.63;;
29816;SDS011;16805;52.956;5.906;2023-09-30T07:49:40;5.13;;;3.95;;
29816;SDS011;16805;52.956;5.906;2023-09-30T07:52:05;7.00;;;4.45;;
29816;SDS011;16805;52.956;5.906;2023-09-30T07:54:31;8.40;;;4.05;;
29816;SDS011;16805;52.956;5.906;2023-09-30T07:56:57;9.43;;;4.10;;
29816;SDS011;16805;52.956;5.906;2023-09-30T07:59:24;8.73;;;4.28;;
29816;SDS011;16805;52.956;5.906;2023-09-30T08:01:50;7.72;;;4.35;;
29816;SDS011;16805;52.956;5.906;2023-09-30T08:04:17;5.68;;;3.70;;
29816;SDS011;16805;52.956;5.906;2023-09-30T08:06:44;6.28;;;4.25;;
29816;SDS011;16805;52.956;5.906;2023-09-30T08:09:11;9.32;;;4.32;;
29816;SDS011;16805;52.956;5.906;2023-09-30T08:11:38;12.20;;;4.22;;
29816;SDS011;16805;52.956;5.906;2023-09-30T08:14:04;7.47;;;4.00;;
29816;SDS011;16805;52.956;5.906;2023-09-30T08:16:35;7.82;;;3.65;;
29816;SDS011;16805;52.956;5.906;2023-09-30T08:19:02;6.88;;;3.50;;
29816;SDS011;16805;52.956;5.906;2023-09-30T08:21:28;6.93;;;3.60;;
29816;SDS011;16805;52.956;5.906;2023-09-30T08:23:55;6.90;;;3.65;;
29816;SDS011;16805;52.956;5.906;2023-09-30T08:26:21;6.72;;;3.88;;
29816;SDS011;16805;52.956;5.906;2023-09-30T08:28:47;8.32;;;3.65;;
29816;SDS011;16805;52.956;5.906;2023-09-30T08:31:13;9.82;;;3.83;;
29816;SDS011;16805;52.956;5.906;2023-09-30T08:33:39;8.10;;;3.85;;
29816;SDS011;16805;52.956;5.906;2023-09-30T08:36:06;7.38;;;3.33;;
29816;SDS011;16805;52.956;5.906;2023-09-30T08:38:36;6.57;;;3.75;;
29816;SDS011;16805;52.956;5.906;2023-09-30T08:41:03;8.77;;;3.33;;
29816;SDS011;16805;52.956;5.906;2023-09-30T08:43:30;6.88;;;2.90;;
29816;SDS011;16805;52.956;5.906;2023-09-30T08:46:00;8.35;;;3.80;;
29816;SDS011;16805;52.956;5.906;2023-09-30T08:48:27;4.65;;;2.80;;
29816;SDS011;16805;52.956;5.906;2023-09-30T08:50:55;4.75;;;3.15;;
29816;SDS011;16805;52.956;5.906;2023-09-30T08:53:22;6.40;;;3.08;;
29816;SDS011;16805;52.956;5.906;2023-09-30T08:55:52;9.43;;;3.72;;
29816;SDS011;16805;52.956;5.906;2023-09-30T08:58:26;7.28;;;3.47;;
29816;SDS011;16805;52.956;5.906;2023-09-30T09:00:53;6.65;;;3.40;;
29816;SDS011;16805;52.956;5.906;2023-09-30T09:03:19;6.35;;;2.13;;
29816;SDS011;16805;52.956;5.906;2023-09-30T09:05:46;9.30;;;2.95;;
29816;SDS011;16805;52.956;5.906;2023-09-30T09:08:18;5.60;;;2.20;;
29816;SDS011;16805;52.956;5.906;2023-09-30T09:10:55;9.02;;;2.83;;
29816;SDS011;16805;52.956;5.906;2023-09-30T09:13:26;8.38;;;2.90;;
29816;SDS011;16805;52.956;5.906;2023-09-30T09:16:06;5.93;;;1.88;;
29816;SDS011;16805;52.956;5.906;2023-09-30T09:18:33;10.25;;;2.25;;
29816;SDS011;16805;52.956;5.906;2023-09-30T09:21:10;4.43;;;2.30;;
29816;SDS011;16805;52.956;5.906;2023-09-30T09:23:44;3.80;;;2.30;;
29816;SDS011;16805;52.956;5.906;2023-09-30T09:26:11;4.97;;;2.10;;
29816;SDS011;16805;52.956;5.906;2023-09-30T09:28:37;3.67;;;1.85;;
29816;SDS011;16805;52.956;5.906;2023-09-30T09:31:20;4.32;;;1.73;;
29816;SDS011;16805;52.956;5.906;2023-09-30T09:33:47;5.25;;;1.48;;
29816;SDS011;16805;52.956;5.906;2023-09-30T09:36:13;8.88;;;2.20;;
29816;SDS011;16805;52.956;5.906;2023-09-30T09:38:57;3.78;;;1.80;;
29816;SDS011;16805;52.956;5.906;2023-09-30T09:41:23;7.72;;;1.83;;
29816;SDS011;16805;52.956;5.906;2023-09-30T09:43:49;5.38;;;2.30;;
29816;SDS011;16805;52.956;5.906;2023-09-30T09:46:16;6.85;;;2.25;;
29816;SDS011;16805;52.956;5.906;2023-09-30T09:48:42;4.78;;;1.60;;
29816;SDS011;16805;52.956;5.906;2023-09-30T09:51:11;7.97;;;1.92;;
29816;SDS011;16805;52.956;5.906;2023-09-30T09:53:38;4.07;;;1.67;;
29816;SDS011;16805;52.956;5.906;2023-09-30T09:56:07;9.13;;;2.00;;
29816;SDS011;16805;52.956;5.906;2023-09-30T09:58:35;3.17;;;1.70;;
29816;SDS011;16805;52.956;5.906;2023-09-30T10:01:03;10.48;;;2.55;;
29816;SDS011;16805;52.956;5.906;2023-09-30T10:03:31;4.78;;;1.70;;
29816;SDS011;16805;52.956;5.906;2023-09-30T10:05:57;7.00;;;2.15;;
29816;SDS011;16805;52.956;5.906;2023-09-30T10:08:28;6.95;;;1.63;;
29816;SDS011;16805;52.956;5.906;2023-09-30T10:11:02;5.20;;;1.20;;
29816;SDS011;16805;52.956;5.906;2023-09-30T10:21:37;3.65;;;1.63;;
29816;SDS011;16805;52.956;5.906;2023-09-30T10:27:20;2.22;;;0.77;;
29816;SDS011;16805;52.956;5.906;2023-09-30T10:35:19;2.53;;;0.50;;
29816;SDS011;16805;52.956;5.906;2023-09-30T10:37:45;5.65;;;1.15;;
29816;SDS011;16805;52.956;5.906;2023-09-30T10:40:30;3.88;;;0.80;;
29816;SDS011;16805;52.956;5.906;2023-09-30T10:42:59;1.02;;;0.50;;
29816;SDS011;16805;52.956;5.906;2023-09-30T10:50:59;3.85;;;0.73;;
29816;SDS011;16805;52.956;5.906;2023-09-30T10:53:26;1.55;;;0.45;;
29816;SDS011;16805;52.956;5.906;2023-09-30T10:55:56;3.35;;;0.65;;
29816;SDS011;16805;52.956;5.906;2023-09-30T10:58:42;4.43;;;0.60;;
29816;SDS011;16805;52.956;5.906;2023-09-30T11:01:09;2.47;;;0.50;;
29816;SDS011;16805;52.956;5.906;2023-09-30T11:03:35;1.75;;;0.50;;
29816;SDS011;16805;52.956;5.906;2023-09-30T11:06:01;4.82;;;0.73;;
29816;SDS011;16805;52.956;5.906;2023-09-30T11:08:29;1.08;;;0.50;;
29816;SDS011;16805;52.956;5.906;2023-09-30T11:10:55;3.65;;;0.77;;
29816;SDS011;16805;52.956;5.906;2023-09-30T11:13:21;3.85;;;0.80;;
29816;SDS011;16805;52.956;5.906;2023-09-30T11:15:48;5.40;;;0.65;;
29816;SDS011;16805;52.956;5.906;2023-09-30T11:18:29;5.60;;;1.02;;
29816;SDS011;16805;52.956;5.906;2023-09-30T11:21:09;5.88;;;0.80;;
29816;SDS011;16805;52.956;5.906;2023-09-30T11:23:37;2.78;;;0.70;;
29816;SDS011;16805;52.956;5.906;2023-09-30T11:26:05;1.95;;;0.57;;
29816;SDS011;16805;52.956;5.906;2023-09-30T11:28:35;3.45;;;0.60;;
29816;SDS011;16805;52.956;5.906;2023-09-30T11:31:02;2.92;;;0.80;;
29816;SDS011;16805;52.956;5.906;2023-09-30T11:33:28;5.25;;;0.85;;
29816;SDS011;16805;52.956;5.906;2023-09-30T11:36:04;3.92;;;0.70;;
29816;SDS011;16805;52.956;5.906;2023-09-30T11:38:31;3.20;;;0.60;;
29816;SDS011;16805;52.956;5.906;2023-09-30T11:41:02;2.60;;;0.50;;
29816;SDS011;16805;52.956;5.906;2023-09-30T11:43:32;1.60;;;0.65;;
29816;SDS011;16805;52.956;5.906;2023-09-30T11:46:08;2.42;;;0.60;;
29816;SDS011;16805;52.956;5.906;2023-09-30T11:48:38;2.50;;;0.75;;
29816;SDS011;16805;52.956;5.906;2023-09-30T11:51:21;2.75;;;0.60;;
29816;SDS011;16805;52.956;5.906;2023-09-30T11:53:49;2.33;;;0.70;;
29816;SDS011;16805;52.956;5.906;2023-09-30T11:56:15;2.33;;;0.50;;
29816;SDS011;16805;52.956;5.906;2023-09-30T11:58:41;3.05;;;0.70;;
29816;SDS011;16805;52.956;5.906;2023-09-30T12:01:07;2.65;;;0.70;;
29816;SDS011;16805;52.956;5.906;2023-09-30T12:03:35;4.05;;;0.90;;
29816;SDS011;16805;52.956;5.906;2023-09-30T12:06:05;3.00;;;0.63;;
29816;SDS011;16805;52.956;5.906;2023-09-30T12:08:31;4.93;;;0.50;;
29816;SDS011;16805;52.956;5.906;2023-09-30T12:10:57;1.65;;;0.60;;
29816;SDS011;16805;52.956;5.906;2023-09-30T12:13:24;5.60;;;1.10;;
29816;SDS011;16805;52.956;5.906;2023-09-30T12:15:51;1.90;;;0.70;;
29816;SDS011;16805;52.956;5.906;2023-09-30T12:18:18;2.85;;;1.02;;
29816;SDS011;16805;52.956;5.906;2023-09-30T12:20:49;2.28;;;0.75;;
29816;SDS011;16805;52.956;5.906;2023-09-30T12:23:17;3.92;;;0.80;;
29816;SDS011;16805;52.956;5.906;2023-09-30T12:25:46;1.77;;;0.55;;
29816;SDS011;16805;52.956;5.906;2023-09-30T12:28:12;2.40;;;0.52;;
29816;SDS011;16805;52.956;5.906;2023-09-30T12:30:42;1.65;;;0.60;;
29816;SDS011;16805;52.956;5.906;2023-09-30T12:33:08;3.38;;;0.70;;
29816;SDS011;16805;52.956;5.906;2023-09-30T12:35:35;5.70;;;0.70;;
29816;SDS011;16805;52.956;5.906;2023-09-30T12:38:01;2.47;;;0.68;;
29816;SDS011;16805;52.956;5.906;2023-09-30T12:40:27;8.32;;;0.70;;
29816;SDS011;16805;52.956;5.906;2023-09-30T12:42:54;1.98;;;0.70;;
29816;SDS011;16805;52.956;5.906;2023-09-30T12:45:20;2.55;;;0.45;;
29816;SDS011;16805;52.956;5.906;2023-09-30T12:47:46;3.25;;;0.50;;
29816;SDS011;16805;52.956;5.906;2023-09-30T12:50:13;2.67;;;0.68;;
29816;SDS011;16805;52.956;5.906;2023-09-30T12:52:38;3.03;;;0.50;;
29816;SDS011;16805;52.956;5.906;2023-09-30T12:55:04;2.78;;;0.57;;
29816;SDS011;16805;52.956;5.906;2023-09-30T12:57:31;4.22;;;0.85;;
29816;SDS011;16805;52.956;5.906;2023-09-30T12:59:57;2.78;;;0.63;;
29816;SDS011;16805;52.956;5.906;2023-09-30T13:02:22;9.05;;;1.15;;
29816;SDS011;16805;52.956;5.906;2023-09-30T13:04:48;3.42;;;0.70;;
29816;SDS011;16805;52.956;5.906;2023-09-30T13:07:14;3.92;;;0.75;;
29816;SDS011;16805;52.956;5.906;2023-09-30T13:09:40;4.28;;;0.80;;
29816;SDS011;16805;52.956;5.906;2023-09-30T13:12:07;2.30;;;0.55;;
29816;SDS011;16805;52.956;5.906;2023-09-30T13:14:33;5.47;;;0.90;;
29816;SDS011;16805;52.956;5.906;2023-09-30T13:16:59;3.78;;;0.80;;
29816;SDS011;16805;52.956;5.906;2023-09-30T13:19:26;4.25;;;0.80;;
29816;SDS011;16805;52.956;5.906;2023-09-30T13:21:52;4.78;;;0.80;;
29816;SDS011;16805;52.956;5.906;2023-09-30T13:24:21;4.10;;;0.85;;
29816;SDS011;16805;52.956;5.906;2023-09-30T13:26:47;5.25;;;0.70;;
29816;SDS011;16805;52.956;5.906;2023-09-30T13:29:14;4.30;;;0.75;;
29816;SDS011;16805;52.956;5.906;2023-09-30T13:31:41;3.95;;;0.77;;
29816;SDS011;16805;52.956;5.906;2023-09-30T13:34:08;4.25;;;0.80;;
29816;SDS011;16805;52.956;5.906;2023-09-30T13:36:34;1.80;;;0.60;;
29816;SDS011;16805;52.956;5.906;2023-09-30T13:38:59;4.45;;;0.85;;
29816;SDS011;16805;52.956;5.906;2023-09-30T13:41:26;2.15;;;0.60;;
29816;SDS011;16805;52.956;5.906;2023-09-30T13:43:52;2.38;;;0.60;;
29816;SDS011;16805;52.956;5.906;2023-09-30T13:46:18;1.77;;;0.65;;
29816;SDS011;16805;52.956;5.906;2023-09-30T13:48:43;2.22;;;0.60;;
29816;SDS011;16805;52.956;5.906;2023-09-30T13:51:09;4.35;;;0.50;;
29816;SDS011;16805;52.956;5.906;2023-09-30T13:53:38;4.65;;;0.85;;
29816;SDS011;16805;52.956;5.906;2023-09-30T13:56:04;3.38;;;0.80;;
29816;SDS011;16805;52.956;5.906;2023-09-30T13:58:31;1.95;;;0.65;;
29816;SDS011;16805;52.956;5.906;2023-09-30T14:00:57;6.68;;;0.80;;
29816;SDS011;16805;52.956;5.906;2023-09-30T14:03:23;2.72;;;0.38;;
29816;SDS011;16805;52.956;5.906;2023-09-30T14:05:51;3.88;;;0.70;;
29816;SDS011;16805;52.956;5.906;2023-09-30T14:08:18;2.45;;;0.60;;
29816;SDS011;16805;52.956;5.906;2023-09-30T14:10:44;5.65;;;0.77;;
29816;SDS011;16805;52.956;5.906;2023-09-30T14:13:10;2.88;;;0.63;;
29816;SDS011;16805;52.956;5.906;2023-09-30T14:15:36;4.05;;;0.70;;
29816;SDS011;16805;52.956;5.906;2023-09-30T14:18:02;3.13;;;0.77;;
29816;SDS011;16805;52.956;5.906;2023-09-30T14:20:29;1.35;;;0.68;;
29816;SDS011;16805;52.956;5.906;2023-09-30T14:22:55;3.05;;;0.70;;
29816;SDS011;16805;52.956;5.906;2023-09-30T14:25:21;3.42;;;0.55;;
29816;SDS011;16805;52.956;5.906;2023-09-30T14:27:47;3.90;;;0.90;;
29816;SDS011;16805;52.956;5.906;2023-09-30T14:30:13;3.78;;;0.75;;
29816;SDS011;16805;52.956;5.906;2023-09-30T14:32:39;3.35;;;0.70;;
29816;SDS011;16805;52.956;5.906;2023-09-30T14:35:06;2.33;;;0.45;;
29816;SDS011;16805;52.956;5.906;2023-09-30T14:37:32;7.63;;;0.60;;
29816;SDS011;16805;52.956;5.906;2023-09-30T14:39:58;4.03;;;0.50;;
29816;SDS011;16805;52.956;5.906;2023-09-30T14:42:23;3.50;;;0.60;;
29816;SDS011;16805;52.956;5.906;2023-09-30T14:44:49;3.95;;;0.63;;
29816;SDS011;16805;52.956;5.906;2023-09-30T14:47:14;2.28;;;0.68;;
29816;SDS011;16805;52.956;5.906;2023-09-30T14:49:40;4.35;;;0.77;;
29816;SDS011;16805;52.956;5.906;2023-09-30T14:52:06;4.70;;;0.80;;
29816;SDS011;16805;52.956;5.906;2023-09-30T14:54:34;1.02;;;0.52;;
29816;SDS011;16805;52.956;5.906;2023-09-30T14:57:00;6.10;;;0.77;;
29816;SDS011;16805;52.956;5.906;2023-09-30T14:59:26;3.60;;;0.55;;
29816;SDS011;16805;52.956;5.906;2023-09-30T15:01:52;2.33;;;0.70;;
29816;SDS011;16805;52.956;5.906;2023-09-30T15:04:18;2.20;;;0.50;;
29816;SDS011;16805;52.956;5.906;2023-09-30T15:06:44;3.65;;;0.82;;
29816;SDS011;16805;52.956;5.906;2023-09-30T15:09:11;1.65;;;0.52;;
29816;SDS011;16805;52.956;5.906;2023-09-30T15:11:37;1.98;;;0.70;;
29816;SDS011;16805;52.956;5.906;2023-09-30T15:14:02;3.80;;;0.60;;